Time;durP1;ratioP1;P1;durP2;ratioP2;P2;SDS_P1;SDS_P2;PMS_P1;PMS_P2;Temp;Humidity;BMP_temperature;BMP_pressure;BME280_temperature;BME280_humidity;BME280_pressure;Samples;Min_cycle;Max_cycle;Signal;HPM_P1;HPM_P2
2023/10/15 00:00:15;;;;;;;3.08;1.00;;;9.40;99.90;;;;;;5050688;28;20051;-73
2023/10/15 00:02:42;;;;;;;5.35;1.60;;;9.50;99.90;;;;;;5041528;28;20627;-73
2023/10/15 00:05:18;;;;;;;3.50;0.88;;;9.40;99.90;;;;;;5045234;28;20021;-73
2023/10/15 00:07:45;;;;;;;6.30;1.38;;;9.40;99.90;;;;;;5050589;28;20032;-74
2023/10/15 00:10:15;;;;;;;5.95;1.13;;;9.40;99.90;;;;;;5051039;28;20451;-73
2023/10/15 00:12:43;;;;;;;6.68;1.63;;;9.50;99.90;;;;;;5050571;28;20036;-73
2023/10/15 00:15:18;;;;;;;6.65;1.60;;;9.50;99.90;;;;;;5051199;28;20037;-73
2023/10/15 00:17:46;;;;;;;5.95;1.70;;;9.40;99.90;;;;;;5050370;28;20099;-74
2023/10/15 00:20:22;;;;;;;5.15;1.20;;;9.40;99.90;;;;;;5050939;28;20032;-73
2023/10/15 00:22:50;;;;;;;6.05;1.25;;;9.40;99.90;;;;;;5049025;28;20112;-74
2023/10/15 00:25:21;;;;;;;4.88;1.48;;;9.40;99.90;;;;;;5051243;28;20448;-74
2023/10/15 00:27:57;;;;;;;4.47;1.05;;;9.40;99.90;;;;;;5048882;28;20396;-74
2023/10/15 00:30:31;;;;;;;6.60;1.58;;;9.40;99.90;;;;;;5050946;28;20055;-73
2023/10/15 00:32:57;;;;;;;4.65;1.25;;;9.40;99.90;;;;;;5049680;28;20025;-74
2023/10/15 00:35:25;;;;;;;5.55;1.50;;;9.40;99.90;;;;;;5049321;28;20389;-74
2023/10/15 00:37:54;;;;;;;4.53;1.20;;;9.40;99.90;;;;;;5050327;28;20482;-74
2023/10/15 00:40:25;;;;;;;4.28;0.93;;;9.40;99.90;;;;;;5050597;28;20029;-75
2023/10/15 00:42:51;;;;;;;2.75;0.98;;;9.40;99.90;;;;;;5049786;28;20445;-75
2023/10/15 00:45:19;;;;;;;7.32;1.35;;;9.40;99.90;;;;;;5048765;28;20078;-75
2023/10/15 00:50:38;;;;;;;4.20;0.80;;;9.40;99.90;;;;;;5051434;28;20036;-75
2023/10/15 00:53:21;;;;;;;4.40;1.20;;;9.40;99.90;;;;;;5049713;28;20024;-75
2023/10/15 00:56:04;;;;;;;2.50;0.80;;;9.40;99.90;;;;;;5050782;28;20025;-75
2023/10/15 01:03:48;;;;;;;4.05;0.95;;;9.30;99.90;;;;;;5049888;28;20075;-75
2023/10/15 01:06:32;;;;;;;3.20;0.95;;;9.30;99.90;;;;;;5050346;28;20500;-75
2023/10/15 01:14:44;;;;;;;2.65;0.90;;;9.10;99.90;;;;;;5053930;28;20087;-75
2023/10/15 01:17:10;;;;;;;3.15;1.00;;;9.00;99.90;;;;;;5054054;28;20362;-76
2023/10/15 01:19:36;;;;;;;4.47;0.77;;;8.90;99.90;;;;;;5054154;28;20055;-75
2023/10/15 01:22:08;;;;;;;6.85;1.00;;;8.90;99.90;;;;;;5052417;28;20075;-75
2023/10/15 01:24:36;;;;;;;3.03;0.80;;;8.80;99.90;;;;;;5053674;28;20047;-75
2023/10/15 01:29:36;;;;;;;;;;;8.70;99.90;;;;;;5049334;28;20033;-75
2023/10/15 01:32:03;;;;;;;2.90;1.00;;;8.70;99.90;;;;;;5043526;28;19987;-75
2023/10/15 01:34:34;;;;;;;4.22;0.90;;;8.60;99.90;;;;;;5052075;28;20036;-75
2023/10/15 01:36:59;;;;;;;3.83;0.68;;;8.60;99.90;;;;;;5052263;28;20021;-75
2023/10/15 01:39:38;;;;;;;3.85;1.00;;;8.60;99.90;;;;;;5053347;28;20099;-75
2023/10/15 01:42:06;;;;;;;2.33;0.80;;;8.50;99.90;;;;;;5051795;28;20041;-75
2023/10/15 01:44:32;;;;;;;2.63;0.80;;;8.50;99.90;;;;;;5053188;28;20056;-75
2023/10/15 01:49:33;;;;;;;2.28;0.80;;;8.40;99.90;;;;;;5053031;28;20061;-75
2023/10/15 01:52:09;;;;;;;5.55;1.15;;;8.40;99.90;;;;;;5053283;28;20069;-74
2023/10/15 01:54:44;;;;;;;4.13;0.90;;;8.40;99.90;;;;;;5053151;28;20039;-75
2023/10/15 01:57:14;;;;;;;3.50;1.02;;;8.40;99.90;;;;;;5053134;28;20078;-75
2023/10/15 01:59:46;;;;;;;3.47;1.15;;;8.50;99.90;;;;;;5051952;28;20698;-75
2023/10/15 02:02:15;;;;;;;5.38;1.10;;;8.50;99.90;;;;;;5052697;28;20528;-75
2023/10/15 02:04:44;;;;;;;2.50;1.02;;;8.60;99.90;;;;;;5053074;28;20032;-75
2023/10/15 02:07:19;;;;;;;6.28;1.30;;;8.60;99.90;;;;;;5052778;28;20433;-75
2023/10/15 02:09:45;;;;;;;4.97;1.08;;;8.60;99.90;;;;;;5051611;28;20091;-74
2023/10/15 02:12:18;;;;;;;4.22;1.25;;;8.60;99.90;;;;;;5052831;28;20040;-75
2023/10/15 02:14:48;;;;;;;5.88;1.48;;;8.60;99.90;;;;;;5052965;28;20110;-75
2023/10/15 02:17:23;;;;;;;3.92;1.30;;;8.60;99.90;;;;;;5052285;28;20028;-75
2023/10/15 02:19:50;;;;;;;6.45;1.30;;;8.50;99.90;;;;;;5052774;28;20021;-75
2023/10/15 02:22:16;;;;;;;3.80;1.25;;;8.60;99.90;;;;;;5051710;28;20032;-74
2023/10/15 02:24:48;;;;;;;5.07;1.45;;;8.60;99.90;;;;;;5051258;28;20025;-75
2023/10/15 02:27:25;;;;;;;4.15;1.52;;;8.50;99.90;;;;;;5052575;28;20044;-75
2023/10/15 02:29:54;;;;;;;6.60;1.30;;;8.50;99.90;;;;;;5040296;28;20416;-75
2023/10/15 02:32:27;;;;;;;4.15;0.93;;;8.50;99.90;;;;;;5050818;28;20479;-75
2023/10/15 02:34:54;;;;;;;8.93;1.58;;;8.50;99.90;;;;;;5052746;28;20120;-74
2023/10/15 02:37:27;;;;;;;3.00;0.98;;;8.50;99.90;;;;;;5050749;28;20013;-74
2023/10/15 02:39:55;;;;;;;5.30;0.85;;;8.50;99.90;;;;;;5051080;28;20475;-74
2023/10/15 02:42:30;;;;;;;4.18;1.15;;;8.50;99.90;;;;;;5051910;28;20394;-74
2023/10/15 02:44:59;;;;;;;5.72;0.90;;;8.50;99.90;;;;;;5044703;28;20075;-74
2023/10/15 02:47:28;;;;;;;3.22;0.80;;;8.50;99.90;;;;;;5052107;28;20031;-74
2023/10/15 02:50:04;;;;;;;4.38;0.90;;;8.50;99.90;;;;;;5050773;28;20021;-74
2023/10/15 02:52:43;;;;;;;3.92;1.25;;;8.50;99.90;;;;;;5050510;28;20021;-74
2023/10/15 02:55:10;;;;;;;1.58;0.70;;;8.50;99.90;;;;;;5052084;28;20383;-74
2023/10/15 02:57:41;;;;;;;1.88;0.60;;;8.50;99.90;;;;;;5051843;28;20048;-74
2023/10/15 03:00:34;;;;;;;2.50;0.90;;;8.50;99.90;;;;;;5050531;28;20031;-74
2023/10/15 03:03:07;;;;;;;2.42;0.85;;;8.60;99.90;;;;;;5041125;28;20033;-74
2023/10/15 03:05:38;;;;;;;4.20;0.88;;;8.60;99.90;;;;;;5049360;28;20047;-74
2023/10/15 03:08:04;;;;;;;4.35;0.85;;;8.60;99.90;;;;;;5051273;28;20025;-74
2023/10/15 03:10:45;;;;;;;2.42;0.70;;;8.60;99.90;;;;;;5050626;28;20045;-74
2023/10/15 03:13:18;;;;;;;5.18;1.27;;;8.50;99.90;;;;;;5051271;28;20021;-74
2023/10/15 03:15:49;;;;;;;3.13;0.75;;;8.50;99.90;;;;;;5047778;28;20028;-74
2023/10/15 03:18:28;;;;;;;1.77;0.80;;;8.50;99.90;;;;;;5039576;28;20054;-74
2023/10/15 03:23:39;;;;;;;1.73;0.65;;;8.50;99.90;;;;;;5051160;28;20114;-74
2023/10/15 03:26:05;;;;;;;0.95;0.43;;;8.50;99.90;;;;;;5051632;28;20543;-74
2023/10/15 03:28:31;;;;;;;6.03;1.45;;;8.50;99.90;;;;;;5049602;28;20048;-74
2023/10/15 03:30:58;;;;;;;2.85;0.70;;;8.50;99.90;;;;;;5051489;28;20039;-74
2023/10/15 03:33:30;;;;;;;2.85;0.80;;;8.50;99.90;;;;;;5050063;28;20029;-74
2023/10/15 03:35:56;;;;;;;4.20;0.77;;;8.50;99.90;;;;;;5050072;28;20021;-74
2023/10/15 03:38:32;;;;;;;1.98;0.80;;;8.50;99.90;;;;;;5050797;28;20024;-73
2023/10/15 03:41:11;;;;;;;5.90;0.90;;;8.60;99.90;;;;;;5051167;28;20041;-73
2023/10/15 03:43:37;;;;;;;2.55;0.70;;;8.50;99.90;;;;;;5050864;28;20159;-73
2023/10/15 03:46:17;;;;;;;3.70;0.93;;;8.50;99.90;;;;;;5051280;28;20075;-74
2023/10/15 03:48:47;;;;;;;3.95;0.90;;;8.60;99.90;;;;;;5050792;28;20029;-73
2023/10/15 03:51:16;;;;;;;4.47;1.02;;;8.60;99.90;;;;;;5049910;28;20031;-73
2023/10/15 03:53:43;;;;;;;1.33;0.70;;;8.60;99.90;;;;;;5050271;28;20029;-74
2023/10/15 03:56:09;;;;;;;3.88;1.00;;;8.60;99.90;;;;;;5051126;28;20478;-73
2023/10/15 03:58:35;;;;;;;5.85;1.20;;;8.60;99.90;;;;;;5049132;28;20037;-74
2023/10/15 04:01:13;;;;;;;3.08;0.95;;;8.60;99.90;;;;;;5049736;28;20492;-74
2023/10/15 04:03:42;;;;;;;5.50;0.98;;;8.70;99.90;;;;;;5050540;28;20087;-73
2023/10/15 04:06:09;;;;;;;4.00;0.90;;;8.70;99.90;;;;;;5051158;28;20201;-74
2023/10/15 04:08:37;;;;;;;3.88;0.85;;;8.70;99.90;;;;;;5050055;28;20036;-73
2023/10/15 04:11:03;;;;;;;3.03;0.80;;;8.70;99.90;;;;;;5050967;28;20024;-73
2023/10/15 04:13:29;;;;;;;1.98;0.82;;;8.70;99.90;;;;;;5050285;28;20025;-73
2023/10/15 04:15:56;;;;;;;3.38;0.70;;;8.70;99.90;;;;;;5049542;28;20503;-73
2023/10/15 04:18:25;;;;;;;1.15;0.63;;;8.70;99.90;;;;;;5050080;28;20021;-74
2023/10/15 04:20:55;;;;;;;4.65;0.95;;;8.70;99.90;;;;;;5050612;28;20017;-73
2023/10/15 04:23:34;;;;;;;3.13;0.93;;;8.80;99.90;;;;;;5039029;28;20025;-73
2023/10/15 04:26:07;;;;;;;2.83;0.65;;;8.80;99.90;;;;;;5046973;28;20021;-73
2023/10/15 04:28:34;;;;;;;1.55;0.50;;;8.80;99.90;;;;;;5050024;28;20500;-73
2023/10/15 04:31:00;;;;;;;1.65;0.50;;;8.80;99.90;;;;;;5050502;28;20029;-74
2023/10/15 04:33:29;;;;;;;2.13;0.70;;;8.90;99.90;;;;;;5049838;28;20025;-74
2023/10/15 04:35:57;;;;;;;2.15;0.90;;;8.80;99.90;;;;;;5050492;28;20100;-74
2023/10/15 04:38:28;;;;;;;3.00;0.68;;;8.80;99.90;;;;;;5050074;28;20021;-74
2023/10/15 04:43:26;;;;;;;3.25;0.73;;;8.80;99.90;;;;;;5050017;28;20076;-74
2023/10/15 04:45:54;;;;;;;1.65;0.50;;;8.80;99.90;;;;;;5050167;28;20445;-74
2023/10/15 04:48:26;;;;;;;3.75;0.70;;;8.80;99.90;;;;;;5048363;28;20577;-74
2023/10/15 04:50:52;;;;;;;2.75;0.70;;;8.70;99.90;;;;;;5050317;28;20112;-74
2023/10/15 04:55:51;;;;;;;2.38;0.60;;;8.60;99.90;;;;;;5037159;28;20116;-74
2023/10/15 04:58:17;;;;;;;2.05;0.75;;;8.60;99.90;;;;;;5049744;28;20483;-74
2023/10/15 05:00:48;;;;;;;2.65;0.70;;;8.50;99.90;;;;;;5050312;28;20052;-74
2023/10/15 05:03:14;;;;;;;2.90;0.80;;;8.50;99.90;;;;;;5049979;28;20110;-74
2023/10/15 05:05:43;;;;;;;2.13;0.90;;;8.40;99.90;;;;;;5048954;28;20036;-74
2023/10/15 05:08:13;;;;;;;2.72;0.65;;;8.40;99.90;;;;;;5048327;28;20029;-74
2023/10/15 05:10:50;;;;;;;3.05;0.90;;;8.40;99.90;;;;;;5034868;28;20044;-74
2023/10/15 05:13:17;;;;;;;2.65;1.10;;;8.40;99.90;;;;;;5049517;28;20568;-73
2023/10/15 05:15:47;;;;;;;2.67;0.88;;;8.40;99.90;;;;;;5050152;28;20478;-73
2023/10/15 05:18:14;;;;;;;3.28;0.90;;;8.40;99.90;;;;;;5048224;28;20025;-73
2023/10/15 05:20:41;;;;;;;2.13;0.75;;;8.40;99.90;;;;;;5048696;28;20025;-73
2023/10/15 05:23:06;;;;;;;3.30;0.70;;;8.40;99.90;;;;;;5049687;28;20029;-73
2023/10/15 05:25:32;;;;;;;4.03;0.82;;;8.40;99.90;;;;;;5049882;28;20441;-73
2023/10/15 05:28:01;;;;;;;3.22;1.10;;;8.40;99.90;;;;;;5044082;28;20208;-73
2023/10/15 05:30:27;;;;;;;2.20;0.50;;;8.40;99.90;;;;;;5042084;28;20490;-73
2023/10/15 05:32:53;;;;;;;2.85;0.70;;;8.40;99.90;;;;;;5049293;28;20031;-73
2023/10/15 05:35:18;;;;;;;2.50;0.55;;;8.40;99.90;;;;;;5048514;28;20404;-73
2023/10/15 05:37:45;;;;;;;0.70;0.52;;;8.30;99.90;;;;;;5035843;28;20120;-73
2023/10/15 05:40:12;;;;;;;5.38;0.82;;;8.30;99.90;;;;;;5048099;28;20013;-74
2023/10/15 05:42:39;;;;;;;3.47;0.85;;;8.30;99.90;;;;;;5049571;28;20087;-74
2023/10/15 05:45:06;;;;;;;4.05;1.00;;;8.30;99.90;;;;;;5049392;28;20386;-74
2023/10/15 05:47:35;;;;;;;3.95;0.70;;;8.30;99.90;;;;;;5048600;28;20116;-73
2023/10/15 05:50:01;;;;;;;5.65;1.02;;;8.30;99.90;;;;;;5049244;28;20343;-73
2023/10/15 05:52:27;;;;;;;3.25;1.00;;;8.30;99.90;;;;;;5048499;28;20017;-73
2023/10/15 05:54:53;;;;;;;2.97;1.00;;;8.30;99.90;;;;;;5049180;28;20028;-73
2023/10/15 05:57:22;;;;;;;3.85;1.00;;;8.20;99.90;;;;;;5051642;28;20009;-73
2023/10/15 05:59:49;;;;;;;2.13;0.95;;;8.20;99.90;;;;;;5040971;28;20029;-74
2023/10/15 06:02:15;;;;;;;2.58;1.10;;;8.20;99.90;;;;;;5051342;28;20055;-74
2023/10/15 06:04:43;;;;;;;4.22;1.10;;;8.10;99.90;;;;;;5052615;28;20497;-74
2023/10/15 06:07:10;;;;;;;4.15;1.00;;;8.10;99.90;;;;;;5053147;28;20106;-74
2023/10/15 06:09:36;;;;;;;3.78;0.93;;;8.00;99.90;;;;;;5052575;28;20028;-73
2023/10/15 06:12:03;;;;;;;4.43;1.15;;;8.00;99.90;;;;;;5053250;28;20036;-73
2023/10/15 06:14:28;;;;;;;4.60;1.33;;;8.00;99.90;;;;;;5050995;28;20013;-74
2023/10/15 06:16:58;;;;;;;3.88;1.15;;;7.90;99.90;;;;;;5051732;28;20082;-74
2023/10/15 06:19:25;;;;;;;4.65;1.23;;;7.90;99.90;;;;;;5051326;28;20063;-73
2023/10/15 06:21:50;;;;;;;5.28;1.52;;;7.80;99.90;;;;;;5051851;28;20048;-74
2023/10/15 06:24:16;;;;;;;2.85;1.30;;;7.80;99.90;;;;;;5051332;28;20048;-73
2023/10/15 06:26:42;;;;;;;6.22;1.67;;;7.80;99.90;;;;;;5054398;28;20032;-74
2023/10/15 06:29:09;;;;;;;9.48;1.63;;;7.80;99.90;;;;;;5052255;28;20521;-74
2023/10/15 06:31:36;;;;;;;4.10;1.60;;;7.70;99.90;;;;;;5051731;28;20439;-74
2023/10/15 06:34:02;;;;;;;5.53;1.30;;;7.70;99.90;;;;;;5052648;28;20033;-74
2023/10/15 06:36:27;;;;;;;4.85;1.00;;;7.70;99.90;;;;;;5052827;28;20405;-73
2023/10/15 06:38:53;;;;;;;1.58;0.82;;;7.70;99.90;;;;;;5052071;28;20026;-73
2023/10/15 06:41:19;;;;;;;5.10;1.17;;;7.70;99.90;;;;;;5052209;28;20037;-73
2023/10/15 06:43:44;;;;;;;5.20;1.15;;;7.70;99.90;;;;;;5051892;28;20025;-73
2023/10/15 06:46:10;;;;;;;5.40;1.02;;;7.70;99.90;;;;;;5051483;28;20025;-74
2023/10/15 06:48:41;;;;;;;1.83;0.57;;;7.70;99.90;;;;;;5050836;28;20060;-74
2023/10/15 06:51:07;;;;;;;3.03;0.80;;;7.70;99.90;;;;;;5050733;28;20106;-73
2023/10/15 06:53:33;;;;;;;4.45;1.10;;;7.80;99.90;;;;;;5051595;28;20084;-73
2023/10/15 06:55:58;;;;;;;6.75;1.10;;;7.80;99.90;;;;;;5052405;28;20025;-73
2023/10/15 06:58:25;;;;;;;2.50;1.05;;;7.80;99.90;;;;;;5051904;28;20027;-74
2023/10/15 07:00:55;;;;;;;5.75;1.10;;;7.90;99.90;;;;;;5050798;28;20039;-73
2023/10/15 07:03:20;;;;;;;5.30;1.30;;;7.90;99.90;;;;;;5051699;28;20013;-74
2023/10/15 07:05:46;;;;;;;3.88;1.50;;;8.00;99.90;;;;;;5051982;28;20511;-73
2023/10/15 07:08:12;;;;;;;5.22;1.65;;;8.00;99.90;;;;;;5051484;28;20554;-73
2023/10/15 07:10:38;;;;;;;4.13;1.35;;;8.00;99.90;;;;;;5050632;28;20045;-74
2023/10/15 07:13:04;;;;;;;2.35;1.25;;;8.00;99.90;;;;;;5051825;28;20033;-73
2023/10/15 07:15:30;;;;;;;4.25;1.52;;;8.00;99.90;;;;;;5037494;28;20479;-74
2023/10/15 07:17:55;;;;;;;4.57;1.40;;;8.00;99.90;;;;;;5050333;28;20025;-73
2023/10/15 07:20:24;;;;;;;3.42;1.35;;;8.10;99.90;;;;;;5051425;28;20048;-74
2023/10/15 07:22:51;;;;;;;4.47;1.30;;;8.10;99.90;;;;;;5051788;28;20450;-74
2023/10/15 07:25:21;;;;;;;6.75;1.55;;;8.10;99.90;;;;;;5050217;28;20039;-74
2023/10/15 07:27:49;;;;;;;3.77;1.17;;;8.10;99.90;;;;;;5044258;28;20112;-74
2023/10/15 07:30:21;;;;;;;8.85;1.50;;;8.20;99.90;;;;;;5050145;28;20291;-74
2023/10/15 07:32:47;;;;;;;4.88;1.42;;;8.20;99.90;;;;;;5051240;28;20115;-74
2023/10/15 07:35:14;;;;;;;6.35;1.73;;;8.20;99.90;;;;;;5050483;28;20549;-74
2023/10/15 07:37:39;;;;;;;4.88;1.70;;;8.30;99.90;;;;;;5044099;28;20083;-73
2023/10/15 07:40:06;;;;;;;4.88;1.27;;;8.30;99.90;;;;;;5046256;28;20029;-74
2023/10/15 07:42:35;;;;;;;2.40;0.95;;;8.30;99.90;;;;;;5043328;28;20062;-73
2023/10/15 07:45:02;;;;;;;4.93;1.75;;;8.40;99.90;;;;;;5047698;28;20450;-74
2023/10/15 07:47:28;;;;;;;5.22;1.50;;;8.40;99.90;;;;;;5050797;28;20025;-73
2023/10/15 07:49:53;;;;;;;4.97;1.70;;;8.50;99.90;;;;;;5050328;28;20025;-73
2023/10/15 07:52:19;;;;;;;5.32;1.50;;;8.50;99.90;;;;;;5049228;28;20079;-74
2023/10/15 07:54:44;;;;;;;9.43;1.58;;;8.50;99.90;;;;;;5050134;28;20396;-74
2023/10/15 07:57:14;;;;;;;5.68;1.50;;;8.60;99.90;;;;;;5052180;28;20477;-74
2023/10/15 07:59:40;;;;;;;5.65;1.50;;;8.60;99.90;;;;;;5049049;28;20389;-74
2023/10/15 08:02:07;;;;;;;5.78;1.58;;;8.60;99.90;;;;;;5050865;28;20020;-74
2023/10/15 08:04:34;;;;;;;4.75;1.33;;;8.60;99.90;;;;;;5048855;28;20056;-74
2023/10/15 08:07:00;;;;;;;5.60;1.63;;;8.70;99.90;;;;;;5049410;28;20433;-74
2023/10/15 08:09:26;;;;;;;5.82;1.50;;;8.70;99.90;;;;;;5048858;28;20024;-74
2023/10/15 08:11:52;;;;;;;5.30;1.30;;;8.60;99.90;;;;;;5051018;28;20033;-74
2023/10/15 08:14:17;;;;;;;7.55;1.48;;;8.70;99.90;;;;;;5048092;28;20071;-74
2023/10/15 08:16:43;;;;;;;3.15;1.33;;;8.70;99.90;;;;;;5050786;28;20394;-74
2023/10/15 08:19:09;;;;;;;6.63;1.65;;;8.70;99.90;;;;;;5048006;28;20028;-74
2023/10/15 08:21:35;;;;;;;4.10;1.13;;;8.70;99.90;;;;;;5047719;28;20021;-74
2023/10/15 08:24:00;;;;;;;7.43;1.45;;;8.70;99.90;;;;;;5049348;28;20036;-74
2023/10/15 08:26:26;;;;;;;3.38;0.88;;;8.70;99.90;;;;;;5050632;28;20028;-74
2023/10/15 08:28:52;;;;;;;4.32;1.00;;;8.80;99.90;;;;;;5050014;28;20025;-74
2023/10/15 08:31:17;;;;;;;6.68;1.60;;;8.80;99.90;;;;;;5050614;28;20040;-74
2023/10/15 08:33:43;;;;;;;10.13;2.30;;;8.80;99.90;;;;;;5049949;28;20480;-74
2023/10/15 08:36:08;;;;;;;6.97;1.75;;;8.90;99.90;;;;;;5050617;28;20028;-74
2023/10/15 08:38:34;;;;;;;5.47;1.40;;;9.00;99.90;;;;;;5049436;28;20025;-74
2023/10/15 08:41:06;;;;;;;3.55;1.20;;;9.00;99.90;;;;;;5049905;28;20575;-73
2023/10/15 08:43:32;;;;;;;3.95;1.05;;;9.00;99.90;;;;;;5050111;28;20155;-74
2023/10/15 08:46:01;;;;;;;4.22;1.00;;;9.10;99.90;;;;;;5048985;28;20021;-74
2023/10/15 08:48:28;;;;;;;5.13;1.10;;;9.10;99.90;;;;;;5048827;28;20431;-74
2023/10/15 08:50:57;;;;;;;4.10;1.30;;;9.10;99.90;;;;;;5048712;28;20374;-73
2023/10/15 08:53:26;;;;;;;2.97;0.88;;;9.10;99.90;;;;;;5049969;28;20074;-73
2023/10/15 08:55:57;;;;;;;6.88;1.33;;;9.10;99.90;;;;;;5049571;28;20551;-74
2023/10/15 08:58:25;;;;;;;3.03;1.00;;;9.10;99.90;;;;;;5048821;28;20025;-73
2023/10/15 09:00:52;;;;;;;2.22;1.05;;;9.00;99.90;;;;;;5049879;28;20477;-73
2023/10/15 09:03:19;;;;;;;3.08;0.93;;;9.10;99.90;;;;;;5048867;28;20094;-73
2023/10/15 09:05:44;;;;;;;3.53;0.77;;;9.10;99.90;;;;;;5044769;28;20559;-74
2023/10/15 09:08:13;;;;;;;7.63;1.30;;;9.10;99.90;;;;;;5040243;28;20048;-73
2023/10/15 09:10:43;;;;;;;3.15;1.08;;;9.10;99.90;;;;;;5047730;28;20044;-73
2023/10/15 09:13:15;;;;;;;6.05;1.00;;;9.10;99.90;;;;;;5050165;28;20029;-74
2023/10/15 09:15:48;;;;;;;5.05;1.05;;;9.10;99.90;;;;;;5048331;28;20029;-73
2023/10/15 09:18:17;;;;;;;2.08;0.82;;;9.10;99.90;;;;;;5049963;28;20497;-74
2023/10/15 09:20:50;;;;;;;2.95;0.68;;;9.20;99.90;;;;;;5047647;28;20397;-74
2023/10/15 09:23:21;;;;;;;4.53;1.17;;;9.30;99.90;;;;;;5039001;28;20052;-74
2023/10/15 09:25:47;;;;;;;;;;;9.30;99.90;;;;;;5048203;28;20112;-74
2023/10/15 09:28:12;;;;;;;2.25;0.73;;;9.40;99.90;;;;;;5049853;28;20000;-74
2023/10/15 09:30:38;;;;;;;3.90;0.95;;;9.40;99.90;;;;;;5048080;28;20029;-75
2023/10/15 09:33:12;;;;;;;4.22;0.80;;;9.50;99.90;;;;;;5052722;28;20025;-74
2023/10/15 09:35:39;;;;;;;5.07;1.20;;;9.60;99.90;;;;;;5052972;28;20024;-74
2023/10/15 09:38:10;;;;;;;3.88;0.80;;;9.60;99.90;;;;;;5053822;28;20168;-75
2023/10/15 09:40:36;;;;;;;2.22;1.00;;;9.60;99.90;;;;;;5052650;28;20412;-74
2023/10/15 09:43:01;;;;;;;5.72;0.85;;;9.70;99.90;;;;;;5053753;28;20013;-74
2023/10/15 09:45:30;;;;;;;5.32;0.90;;;9.70;99.90;;;;;;5052613;28;20055;-75
2023/10/15 09:47:59;;;;;;;3.88;1.00;;;9.80;99.90;;;;;;5053623;28;20027;-74
2023/10/15 09:50:27;;;;;;;3.03;0.93;;;9.70;99.90;;;;;;5041461;28;20497;-74
2023/10/15 09:52:56;;;;;;;5.22;1.27;;;9.80;99.90;;;;;;5053449;28;20024;-74
2023/10/15 09:55:28;;;;;;;3.03;0.90;;;9.90;99.90;;;;;;5052697;28;20071;-74
2023/10/15 09:57:58;;;;;;;4.70;0.95;;;9.90;99.90;;;;;;5055480;28;20040;-74
2023/10/15 10:00:59;;;;;;;3.03;0.73;;;10.00;99.90;;;;;;5054617;28;20611;-74
2023/10/15 10:03:37;;;;;;;3.85;0.95;;;10.10;99.90;;;;;;5041170;28;20108;-74
2023/10/15 10:06:33;;;;;;;3.35;1.00;;;10.20;99.90;;;;;;5027855;28;20037;-75
2023/10/15 10:09:24;;;;;;;8.50;1.67;;;10.20;99.90;;;;;;5040511;28;20094;-74
2023/10/15 10:11:59;;;;;;;3.97;0.90;;;10.20;99.90;;;;;;5053021;28;20033;-74
2023/10/15 10:14:34;;;;;;;7.88;1.23;;;10.20;99.90;;;;;;5052380;28;20275;-74
2023/10/15 10:17:01;;;;;;;5.88;1.13;;;10.20;99.90;;;;;;5048334;28;20029;-75
2023/10/15 10:19:27;;;;;;;5.65;1.50;;;10.20;99.90;;;;;;5052326;28;20036;-74
2023/10/15 10:21:54;;;;;;;5.72;0.88;;;10.30;99.90;;;;;;5052640;28;20487;-74
2023/10/15 10:24:20;;;;;;;7.60;1.08;;;10.30;99.90;;;;;;5049738;28;20103;-75
2023/10/15 10:26:55;;;;;;;6.68;0.90;;;10.40;99.90;;;;;;5052373;28;20060;-74
2023/10/15 10:29:26;;;;;;;6.82;1.25;;;10.40;99.90;;;;;;5049121;28;20433;-76
2023/10/15 10:31:54;;;;;;;5.22;1.30;;;10.50;99.90;;;;;;5052697;28;20021;-76
2023/10/15 10:34:30;;;;;;;7.68;1.10;;;10.50;99.90;;;;;;5052158;28;20025;-76
2023/10/15 10:36:56;;;;;;;5.47;0.80;;;10.60;99.90;;;;;;5051229;28;20112;-76
2023/10/15 10:39:22;;;;;;;3.38;0.80;;;10.60;99.90;;;;;;5050623;28;20017;-76
2023/10/15 10:41:59;;;;;;;5.05;0.90;;;10.70;99.90;;;;;;5050884;28;20481;-76
2023/10/15 10:44:24;;;;;;;7.45;1.30;;;10.80;99.90;;;;;;5051377;28;20524;-77
2023/10/15 10:46:52;;;;;;;5.47;1.20;;;10.90;99.90;;;;;;5052417;28;20028;-76
2023/10/15 10:49:32;;;;;;;3.90;1.20;;;10.90;99.90;;;;;;5051713;28;20028;-76
2023/10/15 10:52:04;;;;;;;3.83;0.67;;;10.90;99.90;;;;;;5056284;28;20319;-75
2023/10/15 10:54:30;;;;;;;6.85;1.35;;;11.00;99.90;;;;;;5051304;28;20029;-74
2023/10/15 10:56:58;;;;;;;6.00;1.08;;;11.00;99.90;;;;;;5050345;28;20022;-74
2023/10/15 10:59:24;;;;;;;7.03;1.33;;;11.10;99.90;;;;;;5051411;28;20021;-74
2023/10/15 11:01:50;;;;;;;4.70;1.42;;;11.10;99.90;;;;;;5052093;28;20024;-74
2023/10/15 11:04:16;;;;;;;4.90;0.80;;;11.20;99.90;;;;;;5051443;28;20524;-73
2023/10/15 11:06:45;;;;;;;3.58;1.02;;;11.30;99.90;;;;;;5052292;28;20029;-73
2023/10/15 11:09:20;;;;;;;3.72;0.80;;;11.30;99.90;;;;;;5051318;28;20100;-74
2023/10/15 11:11:50;;;;;;;5.03;1.33;;;11.40;99.90;;;;;;5041873;28;20041;-73
2023/10/15 11:14:17;;;;;;;3.38;0.80;;;11.50;99.90;;;;;;5049873;28;20024;-73
2023/10/15 11:16:43;;;;;;;3.08;0.80;;;11.60;99.90;;;;;;5047710;28;20043;-73
2023/10/15 11:19:19;;;;;;;3.38;1.00;;;11.70;99.90;;;;;;5051808;28;20047;-73
2023/10/15 11:21:46;;;;;;;4.43;1.15;;;11.80;99.90;;;;;;5042279;28;20083;-73
2023/10/15 11:24:12;;;;;;;6.65;1.77;;;11.90;99.90;;;;;;5051397;28;20125;-72
2023/10/15 11:26:46;;;;;;;4.93;1.13;;;12.00;99.90;;;;;;5047378;28;20143;-76
2023/10/15 11:29:13;;;;;;;2.70;0.80;;;12.10;99.90;;;;;;5050928;28;20056;-75
2023/10/15 11:31:44;;;;;;;2.85;0.77;;;12.20;99.90;;;;;;5050974;28;20272;-73
2023/10/15 11:34:17;;;;;;;3.95;0.85;;;12.30;99.90;;;;;;5046616;28;20078;-72
2023/10/15 11:36:48;;;;;;;5.03;1.00;;;12.40;99.90;;;;;;5049129;28;20064;-73
2023/10/15 11:39:22;;;;;;;3.53;1.00;;;12.50;99.90;;;;;;5037531;28;20033;-74
2023/10/15 11:41:52;;;;;;;2.97;0.90;;;12.60;99.90;;;;;;5038426;28;20428;-74
2023/10/15 11:44:26;;;;;;;3.30;0.90;;;12.70;99.90;;;;;;5039031;28;20448;-73
2023/10/15 11:46:56;;;;;;;5.53;1.25;;;12.70;99.90;;;;;;5035211;28;20025;-73
2023/10/15 11:49:22;;;;;;;6.57;1.63;;;12.80;99.90;;;;;;5037374;28;20382;-75
2023/10/15 11:51:49;;;;;;;4.13;1.00;;;12.80;99.90;;;;;;5035694;28;20025;-75
2023/10/15 11:54:16;;;;;;;2.67;0.80;;;12.80;99.90;;;;;;5031894;28;20710;-75
2023/10/15 11:56:50;;;;;;;3.15;0.80;;;12.90;99.90;;;;;;5032151;28;20029;-74
2023/10/15 11:59:16;;;;;;;5.60;1.42;;;12.90;99.90;;;;;;5035600;28;20025;-75
2023/10/15 12:01:44;;;;;;;5.70;1.40;;;12.90;99.90;;;;;;5037309;28;20021;-74
2023/10/15 12:04:12;;;;;;;8.52;1.70;;;12.90;99.90;;;;;;5034067;28;20114;-73
2023/10/15 12:06:38;;;;;;;8.05;1.20;;;12.90;99.90;;;;;;5029368;28;20043;-73
2023/10/15 12:09:06;;;;;;;6.07;1.33;;;12.80;99.90;;;;;;5033822;28;20036;-73
2023/10/15 12:11:33;;;;;;;4.18;1.17;;;12.70;99.90;;;;;;5034247;28;20492;-74
2023/10/15 12:13:59;;;;;;;5.60;1.17;;;12.70;99.90;;;;;;5036910;28;20075;-74
2023/10/15 12:16:24;;;;;;;4.80;1.08;;;12.60;99.90;;;;;;5033161;28;20635;-73
2023/10/15 12:18:50;;;;;;;6.07;0.95;;;12.60;99.90;;;;;;5033631;28;20352;-73
2023/10/15 12:21:17;;;;;;;4.72;0.93;;;12.60;99.90;;;;;;5032002;28;20033;-73
2023/10/15 12:23:43;;;;;;;5.28;1.15;;;12.70;99.90;;;;;;5035706;28;20055;-73
2023/10/15 12:26:09;;;;;;;4.60;1.10;;;12.80;99.90;;;;;;5035708;28;20814;-74
2023/10/15 12:28:43;;;;;;;4.05;0.90;;;12.90;99.90;;;;;;5034140;28;20075;-73
2023/10/15 12:31:09;;;;;;;7.15;1.40;;;13.10;99.90;;;;;;5037199;28;20033;-73
2023/10/15 12:33:34;;;;;;;3.90;0.98;;;13.10;99.90;;;;;;5035306;28;20029;-73
2023/10/15 12:36:00;;;;;;;3.63;1.10;;;13.10;99.90;;;;;;5037776;28;20067;-73
2023/10/15 12:38:31;;;;;;;3.67;1.15;;;13.20;99.90;;;;;;5041822;28;20489;-74
2023/10/15 12:40:59;;;;;;;4.13;1.48;;;13.20;99.90;;;;;;5044894;28;20478;-73
2023/10/15 12:43:26;;;;;;;4.95;1.15;;;13.30;99.90;;;;;;5047333;28;20032;-73
2023/10/15 12:45:53;;;;;;;3.33;1.15;;;13.30;99.90;;;;;;5044978;28;20029;-73
2023/10/15 12:48:21;;;;;;;2.67;0.95;;;13.30;99.90;;;;;;5047967;28;20029;-74
2023/10/15 12:50:47;;;;;;;3.42;0.98;;;13.30;99.90;;;;;;5044795;28;20400;-74
2023/10/15 12:53:13;;;;;;;3.78;1.13;;;13.40;99.90;;;;;;5044246;28;20036;-74
2023/10/15 12:55:39;;;;;;;5.55;1.30;;;13.50;99.90;;;;;;5049354;28;20021;-73
2023/10/15 12:58:05;;;;;;;5.15;0.90;;;13.50;99.90;;;;;;5050342;28;20035;-73
2023/10/15 13:00:32;;;;;;;6.13;1.00;;;13.60;99.90;;;;;;5048254;28;20024;-73
2023/10/15 13:02:58;;;;;;;4.57;0.95;;;13.60;99.90;;;;;;5049818;28;20099;-73
2023/10/15 13:05:25;;;;;;;3.83;0.90;;;13.70;99.90;;;;;;5049243;28;20156;-74
2023/10/15 13:07:52;;;;;;;4.82;1.05;;;13.70;99.90;;;;;;5047821;28;20619;-74
2023/10/15 13:10:20;;;;;;;4.18;0.95;;;13.70;99.90;;;;;;5049074;28;20035;-74
2023/10/15 13:12:50;;;;;;;4.00;1.00;;;13.80;99.90;;;;;;5051901;28;20564;-74
2023/10/15 13:15:21;;;;;;;3.30;0.70;;;13.80;99.90;;;;;;5041983;28;20076;-73
2023/10/15 13:17:54;;;;;;;2.80;0.70;;;13.80;99.90;;;;;;5052473;28;20100;-73
2023/10/15 13:20:21;;;;;;;3.33;0.70;;;13.80;99.90;;;;;;5049794;28;20025;-73
2023/10/15 13:22:48;;;;;;;4.95;0.98;;;13.80;99.90;;;;;;5051696;28;20048;-73
2023/10/15 13:25:14;;;;;;;3.80;1.27;;;13.80;99.90;;;;;;5054160;28;20029;-73
2023/10/15 13:27:40;;;;;;;4.63;1.33;;;13.80;99.90;;;;;;5037670;28;20051;-73
2023/10/15 13:30:18;;;;;;;4.03;1.05;;;13.80;99.90;;;;;;5049510;28;20047;-73